sensor_id;sensor_type;location;lat;lon;timestamp;pressure;altitude;pressure_sealevel;temperature;humidity
3544;BME280;1786;52.870;9.578;2023-06-22T00:00:52;101022.19;;;28.45;48.84
3544;BME280;1786;52.870;9.578;2023-06-22T00:03:20;101016.44;;;28.81;48.06
3544;BME280;1786;52.870;9.578;2023-06-22T00:05:48;101018.47;;;28.53;48.54
3544;BME280;1786;52.870;9.578;2023-06-22T00:08:16;101009.28;;;28.60;48.28
3544;BME280;1786;52.870;9.578;2023-06-22T00:10:44;101017.69;;;28.85;47.88
3544;BME280;1786;52.870;9.578;2023-06-22T00:13:12;101020.19;;;29.00;47.58
3544;BME280;1786;52.870;9.578;2023-06-22T00:15:40;101023.16;;;28.99;47.44
3544;BME280;1786;52.870;9.578;2023-06-22T00:18:09;101028.63;;;29.25;47.07
3544;BME280;1786;52.870;9.578;2023-06-22T00:20:36;101021.50;;;29.24;46.82
3544;BME280;1786;52.870;9.578;2023-06-22T00:23:07;101021.72;;;29.09;47.23
3544;BME280;1786;52.870;9.578;2023-06-22T00:25:38;101030.28;;;29.13;47.21
3544;BME280;1786;52.870;9.578;2023-06-22T00:28:06;101030.94;;;29.28;47.03
3544;BME280;1786;52.870;9.578;2023-06-22T00:30:35;101024.63;;;29.08;47.24
3544;BME280;1786;52.870;9.578;2023-06-22T00:33:02;101027.16;;;29.23;46.92
3544;BME280;1786;52.870;9.578;2023-06-22T00:35:28;101028.59;;;29.05;47.25
3544;BME280;1786;52.870;9.578;2023-06-22T00:37:56;101026.03;;;28.77;47.75
3544;BME280;1786;52.870;9.578;2023-06-22T00:40:32;101023.81;;;29.21;47.10
3544;BME280;1786;52.870;9.578;2023-06-22T00:42:59;101042.81;;;28.81;47.76
3544;BME280;1786;52.870;9.578;2023-06-22T00:45:26;101036.91;;;28.77;47.50
3544;BME280;1786;52.870;9.578;2023-06-22T00:47:56;101035.06;;;28.23;48.67
3544;BME280;1786;52.870;9.578;2023-06-22T00:50:31;101034.13;;;28.02;48.92
3544;BME280;1786;52.870;9.578;2023-06-22T00:53:05;101030.50;;;28.37;48.02
3544;BME280;1786;52.870;9.578;2023-06-22T00:55:41;101030.22;;;28.18;48.33
3544;BME280;1786;52.870;9.578;2023-06-22T00:58:11;101026.59;;;28.04;48.39
3544;BME280;1786;52.870;9.578;2023-06-22T01:00:39;101025.28;;;27.87;48.81
3544;BME280;1786;52.870;9.578;2023-06-22T01:03:06;101028.16;;;28.20;48.18
3544;BME280;1786;52.870;9.578;2023-06-22T01:05:37;101034.19;;;28.64;47.74
3544;BME280;1786;52.870;9.578;2023-06-22T01:08:35;101036.09;;;28.83;47.13
3544;BME280;1786;52.870;9.578;2023-06-22T01:11:10;101033.97;;;28.72;47.34
3544;BME280;1786;52.870;9.578;2023-06-22T01:16:28;101020.06;;;28.40;47.67
3544;BME280;1786;52.870;9.578;2023-06-22T01:19:01;101019.78;;;28.22;47.88
3544;BME280;1786;52.870;9.578;2023-06-22T01:21:33;101025.63;;;28.74;47.35
3544;BME280;1786;52.870;9.578;2023-06-22T01:24:22;101014.50;;;28.62;47.65
3544;BME280;1786;52.870;9.578;2023-06-22T01:29:36;101007.56;;;28.46;47.61
3544;BME280;1786;52.870;9.578;2023-06-22T01:32:05;100999.09;;;28.21;48.14
3544;BME280;1786;52.870;9.578;2023-06-22T01:34:36;101005.94;;;28.10;48.55
3544;BME280;1786;52.870;9.578;2023-06-22T01:37:04;101006.09;;;28.02;48.47
3544;BME280;1786;52.870;9.578;2023-06-22T01:39:32;101002.41;;;27.47;49.76
3544;BME280;1786;52.870;9.578;2023-06-22T01:41:59;100996.59;;;27.22;50.21
3544;BME280;1786;52.870;9.578;2023-06-22T01:44:26;101003.75;;;27.57;49.73
3544;BME280;1786;52.870;9.578;2023-06-22T01:46:53;100995.75;;;27.49;49.78
3544;BME280;1786;52.870;9.578;2023-06-22T01:49:20;100992.00;;;27.50;49.90
3544;BME280;1786;52.870;9.578;2023-06-22T01:51:47;100983.69;;;27.58;49.53
3544;BME280;1786;52.870;9.578;2023-06-22T01:54:14;100990.59;;;27.54;49.80
3544;BME280;1786;52.870;9.578;2023-06-22T01:56:41;100995.13;;;27.82;48.85
3544;BME280;1786;52.870;9.578;2023-06-22T01:59:28;100991.19;;;27.56;49.48
3544;BME280;1786;52.870;9.578;2023-06-22T02:02:07;100995.44;;;28.00;48.79
3544;BME280;1786;52.870;9.578;2023-06-22T02:04:48;101000.97;;;28.27;47.92
3544;BME280;1786;52.870;9.578;2023-06-22T02:07:18;101009.88;;;28.49;47.40
3544;BME280;1786;52.870;9.578;2023-06-22T02:09:48;101008.53;;;28.32;47.62
3544;BME280;1786;52.870;9.578;2023-06-22T02:12:21;101003.78;;;28.47;47.49
3544;BME280;1786;52.870;9.578;2023-06-22T02:14:49;101002.13;;;28.46;47.34
3544;BME280;1786;52.870;9.578;2023-06-22T02:17:18;101007.28;;;28.34;47.61
3544;BME280;1786;52.870;9.578;2023-06-22T02:19:45;101007.06;;;28.29;47.49
3544;BME280;1786;52.870;9.578;2023-06-22T02:22:13;100998.81;;;28.09;47.67
3544;BME280;1786;52.870;9.578;2023-06-22T02:24:40;101008.59;;;27.62;48.54
3544;BME280;1786;52.870;9.578;2023-06-22T02:27:06;101004.78;;;27.56;48.59
3544;BME280;1786;52.870;9.578;2023-06-22T02:29:33;101006.31;;;27.66;48.84
3544;BME280;1786;52.870;9.578;2023-06-22T02:32:01;101004.16;;;27.54;48.85
3544;BME280;1786;52.870;9.578;2023-06-22T02:34:28;100997.69;;;27.27;49.70
3544;BME280;1786;52.870;9.578;2023-06-22T02:36:54;101004.06;;;26.98;50.62
3544;BME280;1786;52.870;9.578;2023-06-22T02:39:23;101005.63;;;27.07;50.11
3544;BME280;1786;52.870;9.578;2023-06-22T02:41:52;100995.66;;;27.36;49.36
3544;BME280;1786;52.870;9.578;2023-06-22T02:44:19;100996.84;;;27.27;49.80
3544;BME280;1786;52.870;9.578;2023-06-22T02:46:47;100990.78;;;27.03;49.91
3544;BME280;1786;52.870;9.578;2023-06-22T02:49:15;100988.72;;;27.05;50.00
3544;BME280;1786;52.870;9.578;2023-06-22T02:51:45;100996.69;;;27.13;49.66
3544;BME280;1786;52.870;9.578;2023-06-22T02:54:14;100992.50;;;27.11;50.16
3544;BME280;1786;52.870;9.578;2023-06-22T02:56:41;100997.22;;;27.24;49.72
3544;BME280;1786;52.870;9.578;2023-06-22T02:59:10;100995.25;;;27.39;49.08
3544;BME280;1786;52.870;9.578;2023-06-22T03:01:38;101005.00;;;27.61;48.71
3544;BME280;1786;52.870;9.578;2023-06-22T03:04:15;101013.59;;;27.93;48.32
3544;BME280;1786;52.870;9.578;2023-06-22T03:06:42;101010.69;;;28.01;48.01
3544;BME280;1786;52.870;9.578;2023-06-22T03:09:08;101015.72;;;28.04;47.84
3544;BME280;1786;52.870;9.578;2023-06-22T03:11:36;101020.16;;;28.12;47.80
3544;BME280;1786;52.870;9.578;2023-06-22T03:14:03;101016.59;;;27.77;48.15
3544;BME280;1786;52.870;9.578;2023-06-22T03:16:30;101025.75;;;27.97;47.77
3544;BME280;1786;52.870;9.578;2023-06-22T03:18:57;101023.56;;;27.86;48.22
3544;BME280;1786;52.870;9.578;2023-06-22T03:21:27;101026.03;;;28.16;47.86
3544;BME280;1786;52.870;9.578;2023-06-22T03:23:54;101029.13;;;28.54;47.02
3544;BME280;1786;52.870;9.578;2023-06-22T03:26:21;101029.59;;;28.71;46.82
3544;BME280;1786;52.870;9.578;2023-06-22T03:28:50;101028.97;;;28.82;46.18
3544;BME280;1786;52.870;9.578;2023-06-22T03:31:16;101033.78;;;28.80;46.14
3544;BME280;1786;52.870;9.578;2023-06-22T03:33:49;101042.63;;;28.96;46.24
3544;BME280;1786;52.870;9.578;2023-06-22T03:36:17;101042.84;;;29.01;46.00
3544;BME280;1786;52.870;9.578;2023-06-22T03:38:48;101036.56;;;29.07;45.60
3544;BME280;1786;52.870;9.578;2023-06-22T03:44:25;101026.53;;;29.07;45.57
3544;BME280;1786;52.870;9.578;2023-06-22T03:46:51;101028.13;;;28.68;46.36
3544;BME280;1786;52.870;9.578;2023-06-22T03:49:18;101030.16;;;28.46;47.29
3544;BME280;1786;52.870;9.578;2023-06-22T03:51:46;101037.13;;;28.69;46.88
3544;BME280;1786;52.870;9.578;2023-06-22T03:54:12;101035.66;;;28.73;46.80
3544;BME280;1786;52.870;9.578;2023-06-22T03:56:39;101038.16;;;28.75;46.30
3544;BME280;1786;52.870;9.578;2023-06-22T03:59:06;101040.06;;;28.74;46.51
3544;BME280;1786;52.870;9.578;2023-06-22T04:01:32;101046.16;;;28.83;46.40
3544;BME280;1786;52.870;9.578;2023-06-22T04:03:59;101043.19;;;28.71;46.24
3544;BME280;1786;52.870;9.578;2023-06-22T04:06:26;101055.56;;;29.00;46.35
3544;BME280;1786;52.870;9.578;2023-06-22T04:08:52;101050.97;;;28.94;45.87
3544;BME280;1786;52.870;9.578;2023-06-22T04:11:19;101052.25;;;28.98;46.01
3544;BME280;1786;52.870;9.578;2023-06-22T04:13:46;101051.16;;;28.92;45.94
3544;BME280;1786;52.870;9.578;2023-06-22T04:16:12;101054.94;;;28.85;45.99
3544;BME280;1786;52.870;9.578;2023-06-22T04:18:39;101051.56;;;28.76;46.54
3544;BME280;1786;52.870;9.578;2023-06-22T04:21:06;101058.72;;;28.90;46.16
3544;BME280;1786;52.870;9.578;2023-06-22T04:23:33;101059.06;;;28.61;46.39
3544;BME280;1786;52.870;9.578;2023-06-22T04:26:00;101057.22;;;28.81;46.13
3544;BME280;1786;52.870;9.578;2023-06-22T04:28:26;101058.91;;;28.82;46.16
3544;BME280;1786;52.870;9.578;2023-06-22T04:30:53;101058.25;;;28.60;46.50
3544;BME280;1786;52.870;9.578;2023-06-22T04:33:24;101045.63;;;28.46;46.98
3544;BME280;1786;52.870;9.578;2023-06-22T04:35:51;101049.50;;;28.91;46.57
3544;BME280;1786;52.870;9.578;2023-06-22T04:38:17;101054.59;;;29.21;45.94
3544;BME280;1786;52.870;9.578;2023-06-22T04:40:44;101044.53;;;29.15;45.98
3544;BME280;1786;52.870;9.578;2023-06-22T04:43:10;101046.44;;;29.21;45.94
3544;BME280;1786;52.870;9.578;2023-06-22T04:45:37;101053.13;;;29.39;45.81
3544;BME280;1786;52.870;9.578;2023-06-22T04:48:06;101048.28;;;29.41;45.50
3544;BME280;1786;52.870;9.578;2023-06-22T04:50:36;101042.84;;;29.07;46.22
3544;BME280;1786;52.870;9.578;2023-06-22T04:53:05;101047.41;;;29.00;46.26
3544;BME280;1786;52.870;9.578;2023-06-22T04:55:32;101042.03;;;29.33;45.89
3544;BME280;1786;52.870;9.578;2023-06-22T04:57:58;101052.06;;;29.80;44.89
3544;BME280;1786;52.870;9.578;2023-06-22T05:00:31;101051.25;;;29.19;46.02
3544;BME280;1786;52.870;9.578;2023-06-22T05:02:58;101051.25;;;29.19;46.09
3544;BME280;1786;52.870;9.578;2023-06-22T05:05:44;101043.69;;;29.28;46.20
3544;BME280;1786;52.870;9.578;2023-06-22T05:08:11;101043.69;;;29.74;44.96
3544;BME280;1786;52.870;9.578;2023-06-22T05:10:38;101044.28;;;29.90;44.77
3544;BME280;1786;52.870;9.578;2023-06-22T05:13:20;101036.56;;;29.60;45.13
3544;BME280;1786;52.870;9.578;2023-06-22T05:15:48;101042.72;;;30.20;44.52
3544;BME280;1786;52.870;9.578;2023-06-22T05:18:14;101045.44;;;30.72;43.59
3544;BME280;1786;52.870;9.578;2023-06-22T05:20:41;101040.06;;;30.97;42.96
3544;BME280;1786;52.870;9.578;2023-06-22T05:23:08;101038.41;;;31.65;42.61
3544;BME280;1786;52.870;9.578;2023-06-22T05:25:35;101042.53;;;32.78;40.92
3544;BME280;1786;52.870;9.578;2023-06-22T05:28:01;101039.00;;;33.90;39.09
3544;BME280;1786;52.870;9.578;2023-06-22T05:30:37;101055.22;;;35.35;37.57
3544;BME280;1786;52.870;9.578;2023-06-22T05:33:03;101056.72;;;36.43;35.69
3544;BME280;1786;52.870;9.578;2023-06-22T05:35:31;101054.41;;;36.56;34.73
3544;BME280;1786;52.870;9.578;2023-06-22T05:37:57;101056.97;;;37.55;34.48
3544;BME280;1786;52.870;9.578;2023-06-22T05:40:24;101053.38;;;38.02;32.94
3544;BME280;1786;52.870;9.578;2023-06-22T05:42:51;101056.56;;;38.41;33.17
3544;BME280;1786;52.870;9.578;2023-06-22T05:45:18;101063.31;;;38.86;32.46
3544;BME280;1786;52.870;9.578;2023-06-22T05:47:45;101053.97;;;38.09;32.87
3544;BME280;1786;52.870;9.578;2023-06-22T05:50:11;101045.06;;;37.97;32.80
3544;BME280;1786;52.870;9.578;2023-06-22T05:52:39;101049.66;;;37.76;33.07
3544;BME280;1786;52.870;9.578;2023-06-22T05:55:05;101050.31;;;37.51;33.82
3544;BME280;1786;52.870;9.578;2023-06-22T05:57:32;101053.22;;;37.34;34.17
3544;BME280;1786;52.870;9.578;2023-06-22T05:59:59;101042.03;;;37.51;34.16
3544;BME280;1786;52.870;9.578;2023-06-22T06:02:25;101040.63;;;38.64;32.34
3544;BME280;1786;52.870;9.578;2023-06-22T06:04:52;101044.81;;;39.23;31.98
3544;BME280;1786;52.870;9.578;2023-06-22T06:07:19;101047.84;;;39.01;32.26
3544;BME280;1786;52.870;9.578;2023-06-22T06:09:46;101044.25;;;39.05;31.63
3544;BME280;1786;52.870;9.578;2023-06-22T06:12:12;101042.59;;;39.14;32.08
3544;BME280;1786;52.870;9.578;2023-06-22T06:14:39;101045.34;;;38.79;32.19
3544;BME280;1786;52.870;9.578;2023-06-22T06:17:07;101044.81;;;39.28;31.45
3544;BME280;1786;52.870;9.578;2023-06-22T06:19:34;101048.94;;;39.56;31.75
3544;BME280;1786;52.870;9.578;2023-06-22T06:22:00;101051.50;;;40.28;30.17
3544;BME280;1786;52.870;9.578;2023-06-22T06:24:27;101055.25;;;40.42;29.76
3544;BME280;1786;52.870;9.578;2023-06-22T06:26:54;101058.81;;;40.92;29.37
3544;BME280;1786;52.870;9.578;2023-06-22T06:29:21;101053.88;;;41.23;29.32
3544;BME280;1786;52.870;9.578;2023-06-22T06:31:50;101055.91;;;41.42;29.20
3544;BME280;1786;52.870;9.578;2023-06-22T06:34:20;101053.19;;;42.33;29.05
3544;BME280;1786;52.870;9.578;2023-06-22T06:36:46;101063.38;;;43.46;27.38
3544;BME280;1786;52.870;9.578;2023-06-22T06:39:13;101067.25;;;43.31;28.01
3544;BME280;1786;52.870;9.578;2023-06-22T06:41:40;101046.16;;;42.60;27.81
3544;BME280;1786;52.870;9.578;2023-06-22T06:44:13;101044.06;;;42.51;28.29
3544;BME280;1786;52.870;9.578;2023-06-22T06:46:41;101045.69;;;42.14;28.49
3544;BME280;1786;52.870;9.578;2023-06-22T06:49:08;101038.56;;;42.65;28.51
3544;BME280;1786;52.870;9.578;2023-06-22T06:51:35;101046.09;;;42.46;28.06
3544;BME280;1786;52.870;9.578;2023-06-22T06:54:02;101041.25;;;41.89;28.82
3544;BME280;1786;52.870;9.578;2023-06-22T06:56:30;101043.63;;;42.44;28.27
3544;BME280;1786;52.870;9.578;2023-06-22T06:58:59;101048.31;;;43.33;27.63
3544;BME280;1786;52.870;9.578;2023-06-22T07:01:26;101040.06;;;43.56;27.42
3544;BME280;1786;52.870;9.578;2023-06-22T07:03:52;101041.91;;;43.00;27.17
3544;BME280;1786;52.870;9.578;2023-06-22T07:06:20;101039.72;;;42.45;28.51
3544;BME280;1786;52.870;9.578;2023-06-22T07:08:47;101030.16;;;42.70;27.56
3544;BME280;1786;52.870;9.578;2023-06-22T07:11:13;101037.53;;;42.80;28.32
3544;BME280;1786;52.870;9.578;2023-06-22T07:13:40;101031.84;;;41.85;28.76
3544;BME280;1786;52.870;9.578;2023-06-22T07:16:06;101026.81;;;41.10;29.13
3544;BME280;1786;52.870;9.578;2023-06-22T07:18:33;101028.63;;;42.21;28.55
3544;BME280;1786;52.870;9.578;2023-06-22T07:21:00;101028.59;;;42.64;27.56
3544;BME280;1786;52.870;9.578;2023-06-22T07:23:27;101026.41;;;43.13;27.62
3544;BME280;1786;52.870;9.578;2023-06-22T07:25:54;101034.81;;;43.54;27.42
3544;BME280;1786;52.870;9.578;2023-06-22T07:28:20;101031.03;;;43.64;27.17
3544;BME280;1786;52.870;9.578;2023-06-22T07:30:47;101034.19;;;43.43;27.40
3544;BME280;1786;52.870;9.578;2023-06-22T07:33:14;101030.00;;;43.74;26.94
3544;BME280;1786;52.870;9.578;2023-06-22T07:35:41;101024.59;;;43.50;26.48
3544;BME280;1786;52.870;9.578;2023-06-22T07:38:07;101027.66;;;41.88;28.40
3544;BME280;1786;52.870;9.578;2023-06-22T07:40:36;101017.09;;;42.14;27.73
3544;BME280;1786;52.870;9.578;2023-06-22T07:43:03;101016.03;;;42.29;28.18
3544;BME280;1786;52.870;9.578;2023-06-22T07:45:30;101021.47;;;42.39;27.48
3544;BME280;1786;52.870;9.578;2023-06-22T07:47:56;101024.09;;;42.49;27.76
3544;BME280;1786;52.870;9.578;2023-06-22T07:50:23;101014.75;;;42.78;27.75
3544;BME280;1786;52.870;9.578;2023-06-22T07:52:50;101019.84;;;42.71;27.53
3544;BME280;1786;52.870;9.578;2023-06-22T07:55:19;101025.47;;;43.64;27.26
3544;BME280;1786;52.870;9.578;2023-06-22T07:57:48;101021.91;;;43.44;26.96
3544;BME280;1786;52.870;9.578;2023-06-22T08:00:15;101017.44;;;42.83;27.77
3544;BME280;1786;52.870;9.578;2023-06-22T08:02:44;101007.53;;;42.01;28.38
3544;BME280;1786;52.870;9.578;2023-06-22T08:05:12;101000.91;;;41.49;28.30
3544;BME280;1786;52.870;9.578;2023-06-22T08:07:48;101002.06;;;42.34;27.78
3544;BME280;1786;52.870;9.578;2023-06-22T08:10:15;101001.41;;;42.42;27.95
3544;BME280;1786;52.870;9.578;2023-06-22T08:12:42;100995.34;;;42.73;27.85
3544;BME280;1786;52.870;9.578;2023-06-22T08:15:09;100996.00;;;42.32;28.62
3544;BME280;1786;52.870;9.578;2023-06-22T08:17:37;100983.00;;;42.27;27.91
3544;BME280;1786;52.870;9.578;2023-06-22T08:20:08;100989.25;;;41.76;28.42
3544;BME280;1786;52.870;9.578;2023-06-22T08:22:42;100983.91;;;41.56;28.46
3544;BME280;1786;52.870;9.578;2023-06-22T08:25:10;100984.00;;;41.21;29.20
3544;BME280;1786;52.870;9.578;2023-06-22T08:27:37;100988.03;;;41.34;29.34
3544;BME280;1786;52.870;9.578;2023-06-22T08:30:06;100989.72;;;42.21;28.31
3544;BME280;1786;52.870;9.578;2023-06-22T08:32:33;100991.03;;;41.86;28.60
3544;BME280;1786;52.870;9.578;2023-06-22T08:35:00;100987.69;;;41.41;29.44
3544;BME280;1786;52.870;9.578;2023-06-22T08:37:28;100992.28;;;41.26;29.58
3544;BME280;1786;52.870;9.578;2023-06-22T08:40:04;100987.50;;;41.03;29.68
3544;BME280;1786;52.870;9.578;2023-06-22T08:42:42;100996.44;;;40.95;30.23
3544;BME280;1786;52.870;9.578;2023-06-22T08:45:09;100987.63;;;41.46;29.95
3544;BME280;1786;52.870;9.578;2023-06-22T08:47:36;100997.38;;;41.67;29.57
3544;BME280;1786;52.870;9.578;2023-06-22T08:50:04;100988.69;;;42.17;29.35
3544;BME280;1786;52.870;9.578;2023-06-22T08:52:32;100996.06;;;41.36;29.50
3544;BME280;1786;52.870;9.578;2023-06-22T08:54:58;100986.66;;;41.61;29.92
3544;BME280;1786;52.870;9.578;2023-06-22T08:57:25;100979.31;;;41.46;30.27
3544;BME280;1786;52.870;9.578;2023-06-22T08:59:52;100981.22;;;40.58;30.27
3544;BME280;1786;52.870;9.578;2023-06-22T09:02:19;100978.94;;;40.60;30.59
3544;BME280;1786;52.870;9.578;2023-06-22T09:04:46;100975.72;;;40.53;30.98
3544;BME280;1786;52.870;9.578;2023-06-22T09:07:13;100962.19;;;41.39;30.97
3544;BME280;1786;52.870;9.578;2023-06-22T09:09:39;100967.13;;;41.42;30.00
3544;BME280;1786;52.870;9.578;2023-06-22T09:12:07;100958.44;;;41.24;30.93
3544;BME280;1786;52.870;9.578;2023-06-22T09:14:34;100968.69;;;41.53;30.53
3544;BME280;1786;52.870;9.578;2023-06-22T09:17:00;100955.13;;;41.51;29.47
3544;BME280;1786;52.870;9.578;2023-06-22T09:19:27;100941.47;;;41.02;30.09
3544;BME280;1786;52.870;9.578;2023-06-22T09:21:54;100953.75;;;40.96;30.28
3544;BME280;1786;52.870;9.578;2023-06-22T09:24:20;100947.19;;;41.16;30.10
3544;BME280;1786;52.870;9.578;2023-06-22T09:26:47;100946.13;;;41.36;29.76
3544;BME280;1786;52.870;9.578;2023-06-22T09:29:14;100939.72;;;40.48;30.83
3544;BME280;1786;52.870;9.578;2023-06-22T09:31:40;100932.78;;;40.50;30.96
3544;BME280;1786;52.870;9.578;2023-06-22T09:34:08;100932.59;;;40.36;31.02
3544;BME280;1786;52.870;9.578;2023-06-22T09:36:34;100932.94;;;40.64;30.67
3544;BME280;1786;52.870;9.578;2023-06-22T09:39:01;100926.03;;;40.96;30.77
3544;BME280;1786;52.870;9.578;2023-06-22T09:41:32;100933.31;;;40.86;30.81
3544;BME280;1786;52.870;9.578;2023-06-22T09:43:58;100920.59;;;40.85;30.53
3544;BME280;1786;52.870;9.578;2023-06-22T09:46:25;100920.03;;;41.37;31.49
3544;BME280;1786;52.870;9.578;2023-06-22T09:48:52;100921.50;;;42.15;30.00
3544;BME280;1786;52.870;9.578;2023-06-22T09:51:18;100925.78;;;42.07;29.24
3544;BME280;1786;52.870;9.578;2023-06-22T09:53:47;100927.94;;;42.81;29.03
3544;BME280;1786;52.870;9.578;2023-06-22T09:56:14;100927.38;;;43.12;28.74
3544;BME280;1786;52.870;9.578;2023-06-22T09:58:42;100919.63;;;42.81;28.83
3544;BME280;1786;52.870;9.578;2023-06-22T10:01:09;100922.16;;;42.26;29.14
3544;BME280;1786;52.870;9.578;2023-06-22T10:03:37;100914.44;;;42.74;29.00
3544;BME280;1786;52.870;9.578;2023-06-22T10:06:04;100923.88;;;42.60;29.68
3544;BME280;1786;52.870;9.578;2023-06-22T10:08:30;100901.97;;;41.39;30.25
3544;BME280;1786;52.870;9.578;2023-06-22T10:10:57;100907.97;;;41.70;29.65
3544;BME280;1786;52.870;9.578;2023-06-22T10:13:23;100900.88;;;42.02;29.88
3544;BME280;1786;52.870;9.578;2023-06-22T10:15:50;100895.25;;;42.07;29.62
3544;BME280;1786;52.870;9.578;2023-06-22T10:18:19;100893.16;;;41.99;30.08
3544;BME280;1786;52.870;9.578;2023-06-22T10:20:48;100890.81;;;41.68;29.56
3544;BME280;1786;52.870;9.578;2023-06-22T10:23:15;100887.19;;;42.25;28.88
3544;BME280;1786;52.870;9.578;2023-06-22T10:25:41;100894.53;;;42.34;29.02
3544;BME280;1786;52.870;9.578;2023-06-22T10:28:08;100883.31;;;42.07;29.39
3544;BME280;1786;52.870;9.578;2023-06-22T10:30:35;100882.91;;;42.13;29.09
3544;BME280;1786;52.870;9.578;2023-06-22T10:33:01;100877.44;;;42.27;29.51
3544;BME280;1786;52.870;9.578;2023-06-22T10:35:28;100875.53;;;41.23;30.07
3544;BME280;1786;52.870;9.578;2023-06-22T10:37:55;100874.84;;;41.12;30.34
3544;BME280;1786;52.870;9.578;2023-06-22T10:40:23;100864.00;;;40.86;31.19
3544;BME280;1786;52.870;9.578;2023-06-22T10:42:49;100866.47;;;41.17;30.45
3544;BME280;1786;52.870;9.578;2023-06-22T10:45:16;100867.59;;;41.16;31.32
3544;BME280;1786;52.870;9.578;2023-06-22T10:47:43;100868.31;;;40.39;31.69
3544;BME280;1786;52.870;9.578;2023-06-22T10:50:10;100863.66;;;39.95;31.93
3544;BME280;1786;52.870;9.578;2023-06-22T10:52:38;100856.34;;;39.65;31.78
3544;BME280;1786;52.870;9.578;2023-06-22T10:55:05;100857.38;;;39.20;32.68
3544;BME280;1786;52.870;9.578;2023-06-22T10:57:32;100849.69;;;38.81;32.97
3544;BME280;1786;52.870;9.578;2023-06-22T10:59:58;100864.63;;;38.90;33.32
3544;BME280;1786;52.870;9.578;2023-06-22T11:02:25;100856.31;;;39.05;33.99
3544;BME280;1786;52.870;9.578;2023-06-22T11:04:55;100855.81;;;38.62;34.62
3544;BME280;1786;52.870;9.578;2023-06-22T11:07:21;100855.22;;;38.96;33.80
3544;BME280;1786;52.870;9.578;2023-06-22T11:09:48;100856.34;;;38.74;34.27
3544;BME280;1786;52.870;9.578;2023-06-22T11:12:15;100861.59;;;38.25;34.49
3544;BME280;1786;52.870;9.578;2023-06-22T11:14:41;100860.69;;;37.78;34.99
3544;BME280;1786;52.870;9.578;2023-06-22T11:17:08;100855.53;;;38.23;34.20
3544;BME280;1786;52.870;9.578;2023-06-22T11:19:35;100856.38;;;38.34;34.41
3544;BME280;1786;52.870;9.578;2023-06-22T11:22:01;100856.38;;;38.54;34.79
3544;BME280;1786;52.870;9.578;2023-06-22T11:24:28;100851.63;;;38.85;34.23
3544;BME280;1786;52.870;9.578;2023-06-22T11:26:55;100855.41;;;39.25;33.93
3544;BME280;1786;52.870;9.578;2023-06-22T11:29:24;100862.97;;;38.89;33.66
3544;BME280;1786;52.870;9.578;2023-06-22T11:32:03;100855.94;;;39.32;32.81
3544;BME280;1786;52.870;9.578;2023-06-22T11:34:29;100856.59;;;40.13;32.34
3544;BME280;1786;52.870;9.578;2023-06-22T11:36:56;100854.25;;;40.60;32.61
3544;BME280;1786;52.870;9.578;2023-06-22T11:39:23;100853.56;;;40.78;32.18
3544;BME280;1786;52.870;9.578;2023-06-22T11:42:07;100840.00;;;40.48;33.03
3544;BME280;1786;52.870;9.578;2023-06-22T11:44:34;100832.66;;;39.93;32.79
3544;BME280;1786;52.870;9.578;2023-06-22T11:47:01;100825.56;;;39.77;32.86
3544;BME280;1786;52.870;9.578;2023-06-22T11:49:30;100833.44;;;39.59;34.00
3544;BME280;1786;52.870;9.578;2023-06-22T11:51:58;100834.66;;;39.88;33.46
3544;BME280;1786;52.870;9.578;2023-06-22T11:54:25;100826.81;;;39.55;33.27
3544;BME280;1786;52.870;9.578;2023-06-22T11:56:52;100822.28;;;39.70;33.14
3544;BME280;1786;52.870;9.578;2023-06-22T11:59:18;100822.25;;;39.20;33.88
3544;BME280;1786;52.870;9.578;2023-06-22T12:01:45;100812.06;;;39.05;33.93
3544;BME280;1786;52.870;9.578;2023-06-22T12:04:12;100820.94;;;39.02;34.33
3544;BME280;1786;52.870;9.578;2023-06-22T12:06:39;100825.69;;;38.81;33.90
3544;BME280;1786;52.870;9.578;2023-06-22T12:09:08;100803.06;;;38.43;34.93
3544;BME280;1786;52.870;9.578;2023-06-22T12:11:35;100803.03;;;38.79;34.06
3544;BME280;1786;52.870;9.578;2023-06-22T12:14:02;100802.81;;;38.24;34.85
3544;BME280;1786;52.870;9.578;2023-06-22T12:16:29;100806.13;;;38.26;35.45
3544;BME280;1786;52.870;9.578;2023-06-22T12:18:55;100804.19;;;38.52;35.35
3544;BME280;1786;52.870;9.578;2023-06-22T12:21:22;100793.31;;;38.87;35.01
3544;BME280;1786;52.870;9.578;2023-06-22T12:23:49;100785.59;;;38.94;34.97
3544;BME280;1786;52.870;9.578;2023-06-22T12:26:16;100782.88;;;38.73;34.77
3544;BME280;1786;52.870;9.578;2023-06-22T12:28:42;100784.84;;;38.52;34.88
3544;BME280;1786;52.870;9.578;2023-06-22T12:31:09;100774.66;;;38.22;35.56
3544;BME280;1786;52.870;9.578;2023-06-22T12:33:36;100777.69;;;38.31;35.36
3544;BME280;1786;52.870;9.578;2023-06-22T12:36:02;100774.59;;;38.63;35.67
3544;BME280;1786;52.870;9.578;2023-06-22T12:38:31;100768.03;;;38.49;35.10
3544;BME280;1786;52.870;9.578;2023-06-22T12:40:58;100780.72;;;38.19;35.76
3544;BME280;1786;52.870;9.578;2023-06-22T12:43:25;100769.31;;;38.82;35.14
3544;BME280;1786;52.870;9.578;2023-06-22T12:45:51;100776.78;;;38.82;34.95
3544;BME280;1786;52.870;9.578;2023-06-22T12:48:19;100767.34;;;38.88;34.93
3544;BME280;1786;52.870;9.578;2023-06-22T12:50:46;100771.28;;;38.66;35.79
3544;BME280;1786;52.870;9.578;2023-06-22T12:53:14;100769.09;;;38.38;35.67
3544;BME280;1786;52.870;9.578;2023-06-22T12:55:40;100765.78;;;37.84;36.66
3544;BME280;1786;52.870;9.578;2023-06-22T12:58:07;100754.53;;;38.01;36.39
3544;BME280;1786;52.870;9.578;2023-06-22T13:00:34;100748.16;;;37.80;36.24
3544;BME280;1786;52.870;9.578;2023-06-22T13:03:01;100746.47;;;37.79;36.65
3544;BME280;1786;52.870;9.578;2023-06-22T13:05:27;100754.50;;;37.71;36.35
3544;BME280;1786;52.870;9.578;2023-06-22T13:07:54;100744.72;;;37.27;37.62
3544;BME280;1786;52.870;9.578;2023-06-22T13:10:21;100740.50;;;37.04;38.15
3544;BME280;1786;52.870;9.578;2023-06-22T13:12:48;100741.13;;;37.27;37.48
3544;BME280;1786;52.870;9.578;2023-06-22T13:15:14;100733.41;;;37.23;37.45
3544;BME280;1786;52.870;9.578;2023-06-22T13:17:41;100734.69;;;37.00;38.07
3544;BME280;1786;52.870;9.578;2023-06-22T13:20:09;100726.38;;;36.85;38.36
3544;BME280;1786;52.870;9.578;2023-06-22T13:22:36;100721.97;;;36.89;38.54